Savannah, Georgia
Current Conditions -  °F | °C
As of 4:58 PM on Friday 31 Oct 2014 (Local Time) from KSVN Reporting Station
Few Clouds Few Clouds  
Wind Chill: 70°   Ceiling: Unl
Heat Index: 70°   Visibility: 10mi
Dew Point: 47°   Wind: 6mph
Humidity: 44%   Direction: 340°NNW
Pressure: 29.77"   Gusts: NA
Location:  32.08°N, 81.09°W
Report Text: KSVN 312058Z AUTO 34005KT 10SM FEW060 21/09 A2977 RMK AO2 SLP084 T02130085 56012
Loading
Personal Weather Stations






























Interactive Weather Map
Tropical Storm Tracking
New forecast layout! Learn more

10-Day Weather Forecast

Advertisements
Track Severe Weather on mobile